Meteo Giornale » Osservazioni meteo Stati Uniti (USA) » North Conway

ore: 13:55 - Osservazioni Meteo North Conway
Lat. 44° 1' N Lon. 71° 10' W Alt. 151 metri s.l.m.

sereno

23 °C

Sereno

Temp. 24 Ore

17 °C

24 °C

Nord

5.5 Km/h

Dew point 12 °C

Umidità 49 %

Visibilità  10 Km

Il sole sorge alle ore 06:07

Il sole tramonta alle ore 19:22

Data e Ora Cielo e Fenomeni T °C DP °C Um. % Pres. hPa Vis. km Vento km/h
Oggi h: 13:55 sereno Sereno 23 12 49 1025 10 N 5.5
Oggi h: 12:55 molto_nuvoloso Molto Nuvoloso 21 12 56 1025 10 N 0
Oggi h: 11:55 molto_nuvoloso Molto Nuvoloso 20 12 59 1025 10 N 0
Oggi h: 10:55 molto_nuvoloso Molto Nuvoloso 19 9 52 1025 10 N 0
Oggi h: 09:55 poco_nuvoloso Poco Nuvoloso 19 9 52 1024 10 NO 7.4
Oggi h: 08:55 sereno Sereno 18 6 45 1024 10 N 5.5
Oggi h: 07:55 sereno Sereno 18 7 48 1023 10 N 0
Oggi h: 06:55 sereno Sereno 17 7 51 1023 10 N 5.5
Oggi h: 05:55 sereno Sereno 19 6 42 1023 10 S 7.4
Oggi h: 04:55 sereno Sereno 18 7 48 1023 10 N/NO 13
Oggi h: 04:01 coperto Coperto 20 6 39 1022 10 NO 33.3
Oggi h: 03:55 coperto Coperto 19 8 48 1022 10 N 27.8
Oggi h: 02:55 coperto Coperto 19 7 45 1023 10 SO 9.3
Oggi h: 01:55 molto_nuvoloso Molto Nuvoloso 19 8 48 1024 10 N 0
Oggi h: 01:28 coperto Coperto 20 8 45 1025 10 N 24
Oggi h: 01:10 nuvoloso_temporali Temporale nelle vicinanze 19 9 52 1025 10 N 5.5
Oggi h: 00:56 coperto_temporali Temporale 20 8 45 1025 10 N 5.5
Oggi h: 00:55 nuvoloso_temporali Temporale nelle vicinanze 19 8 48 1026 10 SO 9.3
Ieri h: 23:57 nuvoloso_temporali Temporale nelle vicinanze 21 8 43 1024 10 O 22.2
Ieri h: 23:55 nuvoloso_temporali Temporale nelle vicinanze 22 7 37 1024 10 O/SO 14.8
Ieri h: 22:55 molto_nuvoloso Molto Nuvoloso 21 8 43 1023 10 NO 7.4
Ieri h: 21:55 coperto Coperto 20 10 52 1022 10 NO 16.7
Ieri h: 20:55 sereno Sereno 20 11 56 1022 10 NO 13
Ieri h: 19:55 molto_nuvoloso Molto Nuvoloso 20 11 56 1022 10 N/NO 11.1
Ieri h: 18:55 coperto Coperto 24 7 33 1022 10 NO 9.3
Ieri h: 17:55 nuvoloso_temporali Temporale nelle vicinanze 20 8 45 1022 10 NO 37
Ieri h: 17:54 nuvoloso_temporali Temporale nelle vicinanze 20 8 45 1022 10 NO 35.2
Ieri h: 17:53 nuvoloso_temporali Temporale nelle vicinanze 20 9 49 1022 10 O/NO 29.6
Ieri h: 17:43 coperto_temporali Temporale 22 8 40 1022 10 O 24
Ieri h: 17:38 coperto_temporali Temporale 24 7 33 1022 10 O 22.2
Ieri h: 17:37 coperto_temporali Temporale 24 7 33 1022 10 O/SO 24
Ieri h: 17:34 coperto_temporali Temporale 24 9 38 1023 10 O/SO 24
Ieri h: 17:33 nuvoloso_temporali Temporale nelle vicinanze 24 9 38 1023 10 O/SO 27.8
Ieri h: 16:55 nuvoloso Nuvoloso 24 10 41 1021 10 S 11.1
Ieri h: 15:55 sereno Sereno 24 11 43 1021 10 S/SE 14.8